Time;durP1;ratioP1;P1;durP2;ratioP2;P2;SDS_P1;SDS_P2;PMS_P1;PMS_P2;Temp;Humidity;BMP_temperature;BMP_pressure;BME280_temperature;BME280_humidity;BME280_pressure;Samples;Min_cycle;Max_cycle;Signal;HPM_P1;HPM_P2
2023/05/09 00:00:38;;;;;;;4.35;0.35;;;16.60;94.10;;;;;;5014779;28;20026;-61
2023/05/09 00:03:06;;;;;;;1.08;0.32;;;16.70;93.40;;;;;;5011244;28;20017;-61
2023/05/09 00:05:33;;;;;;;1.17;0.77;;;16.70;92.70;;;;;;5021157;28;20033;-61
2023/05/09 00:08:00;;;;;;;2.17;0.43;;;16.70;93.00;;;;;;5013797;28;20040;-61
2023/05/09 00:10:28;;;;;;;1.83;0.43;;;16.70;92.80;;;;;;5011860;28;20128;-61
2023/05/09 00:12:57;;;;;;;2.00;0.35;;;16.70;92.00;;;;;;5026221;28;20032;-59
2023/05/09 00:15:24;;;;;;;3.40;0.60;;;16.80;92.70;;;;;;5021263;28;20049;-61
2023/05/09 00:17:53;;;;;;;1.58;0.50;;;16.90;92.50;;;;;;5020807;28;20026;-61
2023/05/09 00:20:20;;;;;;;11.45;2.17;;;17.00;92.30;;;;;;5019061;28;20371;-61
2023/05/09 00:22:48;;;;;;;3.45;0.60;;;17.10;91.50;;;;;;5023134;28;20069;-62
2023/05/09 00:25:15;;;;;;;0.45;0.45;;;17.10;91.10;;;;;;5024633;28;20034;-61
2023/05/09 00:27:43;;;;;;;0.30;0.30;;;17.10;91.60;;;;;;5018194;28;20311;-61
2023/05/09 00:30:10;;;;;;;1.75;0.30;;;17.10;90.20;;;;;;5021693;28;20032;-59
2023/05/09 00:32:40;;;;;;;1.10;0.50;;;17.10;90.10;;;;;;5017809;28;20067;-60
2023/05/09 00:35:08;;;;;;;3.42;0.30;;;17.20;90.80;;;;;;5018274;28;20098;-60
2023/05/09 00:37:36;;;;;;;1.23;0.55;;;17.20;90.30;;;;;;5015618;28;20486;-60
2023/05/09 00:40:06;;;;;;;0.80;0.32;;;17.10;90.20;;;;;;5016682;28;20502;-61
2023/05/09 00:42:34;;;;;;;0.95;0.30;;;17.10;89.80;;;;;;5017452;28;20030;-62
2023/05/09 00:45:02;;;;;;;2.17;0.60;;;17.10;91.00;;;;;;5018054;28;20034;-60
2023/05/09 00:47:29;;;;;;;0.73;0.40;;;17.30;90.30;;;;;;5021342;28;20029;-60
2023/05/09 00:49:58;;;;;;;0.47;0.38;;;17.30;89.20;;;;;;5038517;28;20033;-60
2023/05/09 00:52:26;;;;;;;3.75;0.50;;;17.40;90.00;;;;;;5036300;28;20052;-61
2023/05/09 00:54:54;;;;;;;0.45;0.30;;;17.40;87.70;;;;;;5037075;28;20056;-62
2023/05/09 00:57:25;;;;;;;0.50;0.30;;;17.40;87.40;;;;;;5036936;28;20115;-63
2023/05/09 00:59:52;;;;;;;1.25;0.38;;;17.50;88.30;;;;;;5036294;28;20033;-62
2023/05/09 01:02:21;;;;;;;0.85;0.60;;;17.60;88.50;;;;;;5038616;28;20487;-61
2023/05/09 01:04:48;;;;;;;0.45;0.40;;;17.60;88.20;;;;;;5044515;28;20025;-61
2023/05/09 01:07:43;;;;;;;2.72;0.70;;;17.70;88.60;;;;;;5040433;28;20032;-61
2023/05/09 01:10:20;;;;;;;0.70;0.50;;;17.80;84.70;;;;;;5046416;28;20104;-61
2023/05/09 01:13:26;;;;;;;0.52;0.40;;;17.90;86.10;;;;;;5050115;28;20017;-61
2023/05/09 01:15:56;;;;;;;1.13;0.50;;;17.90;85.00;;;;;;5022411;28;20401;-62
2023/05/09 01:18:47;;;;;;;4.88;0.50;;;17.90;84.00;;;;;;5042299;28;20025;-63
2023/05/09 01:21:26;;;;;;;3.40;0.52;;;17.90;84.90;;;;;;5044080;28;20055;-62
2023/05/09 01:24:00;;;;;;;5.35;0.55;;;17.90;85.40;;;;;;5045481;28;20033;-62
2023/05/09 01:27:15;;;;;;;5.80;0.90;;;17.90;84.60;;;;;;5043203;28;20099;-62
2023/05/09 01:29:59;;;;;;;1.55;0.50;;;18.00;83.20;;;;;;4965799;28;20650;-63
2023/05/09 01:32:30;;;;;;;2.80;1.25;;;18.00;85.70;;;;;;4959410;28;20035;-62
2023/05/09 01:35:01;;;;;;;1.92;0.57;;;18.00;82.00;;;;;;4995842;28;20037;-63
2023/05/09 01:37:35;;;;;;;0.75;0.47;;;18.00;82.20;;;;;;5048928;28;20070;-62
2023/05/09 01:40:15;;;;;;;1.20;0.57;;;18.00;83.60;;;;;;5039324;28;20036;-61
2023/05/09 01:42:54;;;;;;;3.30;0.68;;;18.10;84.60;;;;;;5043263;28;20527;-62
2023/05/09 01:45:23;;;;;;;0.60;0.30;;;18.20;83.90;;;;;;5042371;28;20116;-62
2023/05/09 01:47:52;;;;;;;2.75;0.50;;;18.20;82.00;;;;;;5020950;28;20118;-61
2023/05/09 01:50:21;;;;;;;1.63;0.43;;;18.30;81.50;;;;;;5027554;28;20112;-61
2023/05/09 01:52:51;;;;;;;1.30;0.30;;;18.40;82.20;;;;;;5027793;28;20100;-61
2023/05/09 01:55:20;;;;;;;0.70;0.45;;;18.40;80.20;;;;;;5017662;28;20021;-61
2023/05/09 01:57:49;;;;;;;3.00;0.60;;;18.50;81.40;;;;;;5027362;28;20017;-62
2023/05/09 02:00:18;;;;;;;1.15;0.57;;;18.60;81.00;;;;;;5021832;28;20029;-61
2023/05/09 02:02:46;;;;;;;3.28;0.73;;;18.60;76.00;;;;;;5016376;28;20029;-61
2023/05/09 02:05:14;;;;;;;2.00;0.40;;;18.50;76.10;;;;;;5027521;28;20129;-61
2023/05/09 02:07:42;;;;;;;4.57;0.52;;;18.50;76.50;;;;;;5028826;28;20032;-59
2023/05/09 02:10:10;;;;;;;1.05;0.50;;;18.60;76.60;;;;;;5017824;28;20025;-59
2023/05/09 02:12:38;;;;;;;1.48;0.65;;;18.70;77.30;;;;;;5024771;28;20029;-60
2023/05/09 02:15:07;;;;;;;1.13;0.40;;;18.80;77.30;;;;;;5026033;28;20529;-60
2023/05/09 02:17:35;;;;;;;1.02;0.40;;;18.70;76.00;;;;;;5021702;28;20033;-60
2023/05/09 02:20:04;;;;;;;3.38;1.40;;;18.50;76.30;;;;;;5015962;28;20079;-61
2023/05/09 02:22:31;;;;;;;0.65;0.50;;;18.60;78.80;;;;;;5030897;28;20022;-60
2023/05/09 02:24:59;;;;;;;0.70;0.40;;;18.60;76.70;;;;;;5014815;28;20045;-61
2023/05/09 02:27:27;;;;;;;1.88;0.75;;;18.80;74.80;;;;;;5022788;28;20044;-60
2023/05/09 02:30:00;;;;;;;0.47;0.40;;;18.60;73.70;;;;;;5016043;28;20058;-60
2023/05/09 02:32:30;;;;;;;2.50;0.50;;;18.40;77.20;;;;;;5017708;28;20101;-62
2023/05/09 02:35:00;;;;;;;1.52;0.35;;;18.60;76.50;;;;;;5024650;28;20025;-61
2023/05/09 02:37:28;;;;;;;0.90;0.47;;;18.60;75.20;;;;;;5021158;28;20065;-62
2023/05/09 02:39:56;;;;;;;2.03;0.57;;;18.60;74.60;;;;;;5023404;28;20048;-62
2023/05/09 02:42:27;;;;;;;2.45;0.60;;;18.80;75.00;;;;;;5024568;28;20032;-63
2023/05/09 02:44:55;;;;;;;2.28;0.60;;;18.70;75.50;;;;;;5015426;28;20030;-63
2023/05/09 02:47:24;;;;;;;2.22;0.50;;;18.70;77.30;;;;;;5024206;28;20036;-63
2023/05/09 02:49:51;;;;;;;2.33;1.42;;;18.80;73.20;;;;;;5049732;28;20021;-63
2023/05/09 02:52:20;;;;;;;3.55;0.55;;;19.00;72.90;;;;;;5037410;28;20530;-62
2023/05/09 02:54:47;;;;;;;4.20;0.55;;;19.00;72.80;;;;;;5032503;28;20018;-62
2023/05/09 02:57:15;;;;;;;4.82;0.80;;;18.70;72.80;;;;;;5045254;28;20026;-62
2023/05/09 02:59:42;;;;;;;2.08;0.63;;;18.60;74.10;;;;;;5041893;28;20020;-62
2023/05/09 03:02:10;;;;;;;2.60;0.70;;;18.80;76.00;;;;;;5038023;28;20021;-60
2023/05/09 03:04:37;;;;;;;1.48;0.70;;;18.90;75.00;;;;;;5046082;28;20383;-56
2023/05/09 03:07:05;;;;;;;2.72;0.60;;;19.10;75.80;;;;;;5033827;28;20454;-57
2023/05/09 03:09:32;;;;;;;12.02;1.00;;;19.10;73.20;;;;;;5045595;28;20021;-58
2023/05/09 03:12:00;;;;;;;8.88;0.57;;;19.20;72.50;;;;;;5040835;28;20024;-59
2023/05/09 03:14:27;;;;;;;2.00;0.90;;;19.20;72.10;;;;;;5045126;28;20013;-58
2023/05/09 03:16:55;;;;;;;1.30;0.35;;;19.20;71.00;;;;;;5043361;28;20393;-58
2023/05/09 03:19:22;;;;;;;3.28;0.55;;;19.30;73.50;;;;;;5020203;28;20394;-63
2023/05/09 03:21:50;;;;;;;2.05;0.55;;;19.50;72.00;;;;;;5041055;28;20106;-59
2023/05/09 03:24:17;;;;;;;1.80;0.55;;;19.70;72.20;;;;;;5017880;28;20159;-60
2023/05/09 03:26:45;;;;;;;1.55;0.60;;;19.60;71.40;;;;;;5028546;28;20036;-60
2023/05/09 03:29:12;;;;;;;1.15;0.40;;;19.50;69.70;;;;;;5020017;28;20545;-60
2023/05/09 03:31:39;;;;;;;4.18;0.80;;;19.30;69.70;;;;;;5046622;28;20032;-60
2023/05/09 03:34:13;;;;;;;2.13;0.52;;;19.20;69.80;;;;;;5040010;28;20100;-60
2023/05/09 03:36:43;;;;;;;2.40;0.82;;;19.20;70.50;;;;;;5046875;28;20028;-60
2023/05/09 03:39:11;;;;;;;3.70;0.70;;;19.30;70.60;;;;;;5040592;28;20139;-60
2023/05/09 03:41:39;;;;;;;5.72;0.65;;;19.30;70.80;;;;;;5042608;28;20025;-60
2023/05/09 03:44:06;;;;;;;1.42;0.38;;;19.20;69.30;;;;;;5042854;28;20106;-60
2023/05/09 03:46:34;;;;;;;1.65;0.68;;;19.30;70.30;;;;;;5037753;28;20037;-60
2023/05/09 03:49:03;;;;;;;3.13;0.75;;;19.30;69.30;;;;;;5045571;28;20037;-60
2023/05/09 03:51:31;;;;;;;1.63;0.80;;;19.30;70.60;;;;;;5046024;28;20115;-61
2023/05/09 03:53:58;;;;;;;4.68;0.75;;;19.20;72.20;;;;;;5038239;28;20049;-60
2023/05/09 03:56:26;;;;;;;2.55;0.60;;;19.20;71.80;;;;;;5025524;28;20036;-59
2023/05/09 03:58:53;;;;;;;0.82;0.40;;;19.20;70.10;;;;;;5022325;28;20025;-59
2023/05/09 04:01:21;;;;;;;2.35;0.55;;;19.20;71.50;;;;;;5045496;28;20036;-59
2023/05/09 04:03:49;;;;;;;1.85;0.60;;;19.10;72.80;;;;;;5047861;28;20116;-60
2023/05/09 04:06:16;;;;;;;2.05;0.60;;;19.00;72.00;;;;;;5045890;28;20077;-60
2023/05/09 04:08:44;;;;;;;2.83;1.13;;;19.10;71.30;;;;;;5047514;28;20025;-60
2023/05/09 04:11:11;;;;;;;2.38;0.60;;;19.00;70.00;;;;;;5041433;28;20026;-60
2023/05/09 04:13:39;;;;;;;6.85;0.70;;;19.00;71.80;;;;;;5042513;28;20021;-60
2023/05/09 04:16:06;;;;;;;3.55;0.55;;;18.90;72.30;;;;;;5039704;28;20036;-59
2023/05/09 04:18:35;;;;;;;5.03;0.93;;;18.90;72.10;;;;;;5041870;28;20029;-59
2023/05/09 04:21:02;;;;;;;2.05;1.05;;;18.90;72.50;;;;;;5043042;28;20112;-60
2023/05/09 04:23:30;;;;;;;3.00;0.80;;;19.00;71.90;;;;;;5017699;28;20017;-60
2023/05/09 04:25:57;;;;;;;4.55;0.70;;;19.10;71.40;;;;;;5037655;28;20048;-60
2023/05/09 04:28:25;;;;;;;4.60;0.70;;;19.20;71.30;;;;;;5045632;28;20493;-60
2023/05/09 04:30:53;;;;;;;2.38;0.70;;;19.20;71.00;;;;;;5042050;28;20076;-60
2023/05/09 04:33:21;;;;;;;1.63;0.63;;;19.30;72.90;;;;;;5042781;28;20025;-60
2023/05/09 04:35:48;;;;;;;2.95;0.77;;;19.30;72.00;;;;;;5042451;28;20493;-60
2023/05/09 04:38:15;;;;;;;4.22;0.77;;;19.60;71.20;;;;;;5035589;28;20080;-59
2023/05/09 04:40:43;;;;;;;1.38;0.40;;;19.50;70.00;;;;;;5051993;28;20017;-58
2023/05/09 04:43:10;;;;;;;4.38;0.73;;;19.50;70.10;;;;;;5030181;28;20021;-60
2023/05/09 04:45:38;;;;;;;3.33;0.50;;;19.60;69.40;;;;;;5036626;28;20047;-60
2023/05/09 04:48:05;;;;;;;3.88;0.95;;;19.60;68.30;;;;;;5037563;28;20569;-61
2023/05/09 04:50:33;;;;;;;3.10;0.63;;;19.60;70.00;;;;;;5045317;28;20056;-60
2023/05/09 04:53:00;;;;;;;3.78;1.10;;;19.50;70.70;;;;;;5021945;28;20457;-60
2023/05/09 04:55:28;;;;;;;1.20;0.55;;;19.50;69.30;;;;;;5043529;28;20037;-60
2023/05/09 04:57:55;;;;;;;5.38;0.93;;;19.50;71.90;;;;;;5040370;28;20021;-61
2023/05/09 05:00:23;;;;;;;1.40;0.68;;;19.40;71.10;;;;;;5039975;28;20068;-60
2023/05/09 05:02:50;;;;;;;2.10;0.85;;;19.20;70.50;;;;;;5037505;28;20036;-58
2023/05/09 05:05:18;;;;;;;3.05;0.60;;;19.10;70.30;;;;;;5042452;28;20040;-61
2023/05/09 05:07:45;;;;;;;2.95;0.60;;;19.00;70.90;;;;;;5046568;28;20021;-61
2023/05/09 05:10:12;;;;;;;2.45;0.98;;;19.00;72.10;;;;;;5045893;28;20513;-61
2023/05/09 05:12:40;;;;;;;3.35;0.90;;;19.00;71.00;;;;;;5049732;28;20123;-62
2023/05/09 05:15:08;;;;;;;3.92;0.88;;;18.80;71.20;;;;;;5045947;28;20390;-62
2023/05/09 05:17:35;;;;;;;5.30;0.75;;;18.70;71.90;;;;;;5047322;28;20025;-61
2023/05/09 05:20:05;;;;;;;3.85;0.52;;;18.70;73.20;;;;;;5037031;28;20033;-62
2023/05/09 05:22:32;;;;;;;5.45;0.80;;;18.70;74.40;;;;;;5024788;28;20021;-62
2023/05/09 05:25:02;;;;;;;1.80;0.60;;;18.60;74.50;;;;;;5046980;28;20033;-62
2023/05/09 05:27:29;;;;;;;1.92;0.60;;;18.70;74.70;;;;;;5064323;28;20498;-62
2023/05/09 05:29:57;;;;;;;2.30;0.80;;;18.60;73.40;;;;;;5029863;28;20556;-62
2023/05/09 05:32:24;;;;;;;3.90;1.02;;;18.60;74.80;;;;;;5023572;28;20087;-62
2023/05/09 05:34:52;;;;;;;4.70;0.77;;;18.50;74.40;;;;;;5046535;28;20394;-62
2023/05/09 05:37:19;;;;;;;3.25;0.80;;;18.40;75.30;;;;;;5035950;28;20089;-61
2023/05/09 05:39:47;;;;;;;1.33;0.40;;;18.40;75.70;;;;;;5045708;28;20083;-62
2023/05/09 05:42:14;;;;;;;5.60;0.85;;;18.30;75.90;;;;;;5038926;28;20083;-62
2023/05/09 05:44:41;;;;;;;3.65;1.10;;;18.30;75.90;;;;;;5024212;28;20033;-62
2023/05/09 05:47:09;;;;;;;3.38;1.05;;;18.30;76.20;;;;;;5049780;28;20044;-63
2023/05/09 05:49:36;;;;;;;4.28;0.77;;;18.20;76.00;;;;;;5047065;28;20028;-62
2023/05/09 05:52:04;;;;;;;1.27;0.68;;;18.20;77.40;;;;;;5045209;28;20028;-62
2023/05/09 05:54:32;;;;;;;2.75;0.70;;;18.20;77.80;;;;;;5022174;28;20021;-61
2023/05/09 05:56:59;;;;;;;5.82;1.55;;;18.10;78.00;;;;;;5039517;28;20744;-61
2023/05/09 05:59:27;;;;;;;5.05;1.10;;;18.10;77.30;;;;;;5043645;28;20100;-62
2023/05/09 06:01:54;;;;;;;3.53;0.85;;;18.00;77.90;;;;;;5043684;28;20116;-62
2023/05/09 06:04:22;;;;;;;1.33;0.55;;;17.90;78.50;;;;;;5020376;28;20083;-64
2023/05/09 06:06:50;;;;;;;3.03;0.60;;;17.80;79.80;;;;;;5032969;28;20029;-61
2023/05/09 06:09:17;;;;;;;3.33;0.80;;;17.70;80.70;;;;;;5040366;28;20056;-61
2023/05/09 06:11:45;;;;;;;3.97;0.73;;;17.60;81.70;;;;;;5044302;28;20479;-62
2023/05/09 06:14:12;;;;;;;3.38;0.70;;;17.40;81.00;;;;;;5043783;28;20022;-61
2023/05/09 06:16:40;;;;;;;5.60;1.00;;;17.30;81.90;;;;;;5036847;28;20030;-61
2023/05/09 06:19:07;;;;;;;4.15;0.93;;;17.20;83.30;;;;;;5042466;28;20426;-61
2023/05/09 06:21:34;;;;;;;14.45;0.80;;;17.00;84.10;;;;;;5039609;28;20031;-61
2023/05/09 06:24:02;;;;;;;4.70;1.17;;;16.80;86.30;;;;;;5041732;28;20205;-61
2023/05/09 06:26:30;;;;;;;6.25;1.10;;;16.70;86.80;;;;;;5035556;28;20434;-61
2023/05/09 06:28:57;;;;;;;1.65;0.70;;;16.50;87.50;;;;;;5027254;28;20439;-61
2023/05/09 06:31:25;;;;;;;4.35;0.82;;;16.40;89.90;;;;;;5043788;28;20092;-61
2023/05/09 06:33:52;;;;;;;2.88;1.13;;;16.20;90.40;;;;;;5043548;28;20060;-62
2023/05/09 06:36:20;;;;;;;5.40;0.85;;;16.10;91.00;;;;;;5038947;28;20053;-61
2023/05/09 06:38:47;;;;;;;3.03;0.80;;;16.10;91.70;;;;;;5046509;28;20020;-61
2023/05/09 06:41:15;;;;;;;6.22;0.88;;;16.00;92.80;;;;;;5036026;28;20944;-61
2023/05/09 06:43:42;;;;;;;3.97;1.00;;;16.00;94.70;;;;;;5025850;28;20047;-59
2023/05/09 06:46:10;;;;;;;1.45;0.63;;;15.90;94.40;;;;;;5043668;28;20124;-59
2023/05/09 06:48:37;;;;;;;2.20;0.90;;;15.70;94.90;;;;;;5045523;28;20134;-59
2023/05/09 06:51:05;;;;;;;3.42;1.10;;;15.50;95.40;;;;;;5041852;28;20025;-59
2023/05/09 06:53:32;;;;;;;7.30;0.98;;;15.40;96.10;;;;;;5039313;28;20048;-59
2023/05/09 06:56:00;;;;;;;3.58;0.98;;;15.20;97.30;;;;;;5021417;28;20025;-56
2023/05/09 06:58:28;;;;;;;2.50;1.50;;;15.10;97.90;;;;;;5041628;28;20029;-55
2023/05/09 07:00:56;;;;;;;6.65;0.98;;;15.00;98.80;;;;;;5034052;28;20036;-53
2023/05/09 07:03:23;;;;;;;4.93;0.85;;;14.90;99.70;;;;;;5043685;28;20017;-57
2023/05/09 07:05:51;;;;;;;4.85;1.00;;;14.80;99.90;;;;;;5041435;28;20060;-55
2023/05/09 07:08:18;;;;;;;3.63;1.70;;;14.60;99.90;;;;;;5041556;28;20013;-55
2023/05/09 07:10:46;;;;;;;3.95;0.90;;;14.40;99.90;;;;;;5042804;28;20048;-54
2023/05/09 07:13:13;;;;;;;4.05;0.95;;;14.30;99.90;;;;;;5045330;28;20036;-63
2023/05/09 07:15:41;;;;;;;13.65;1.20;;;14.20;99.90;;;;;;5039168;28;20033;-63
2023/05/09 07:18:08;;;;;;;4.95;0.77;;;14.00;99.90;;;;;;5038453;28;20029;-61
2023/05/09 07:20:36;;;;;;;1.50;0.65;;;13.90;99.90;;;;;;5040981;28;20036;-62
2023/05/09 07:23:04;;;;;;;3.50;1.00;;;13.80;99.90;;;;;;5041702;28;20501;-62
2023/05/09 07:25:32;;;;;;;5.05;1.30;;;13.60;99.90;;;;;;5037231;28;20035;-62
2023/05/09 07:27:59;;;;;;;13.07;3.33;;;13.40;99.90;;;;;;5023018;28;20066;-61
2023/05/09 07:30:27;;;;;;;6.10;1.60;;;13.20;99.90;;;;;;5038931;28;20108;-60
2023/05/09 07:32:54;;;;;;;8.30;2.97;;;13.10;99.90;;;;;;5038804;28;20474;-60
2023/05/09 07:35:22;;;;;;;12.60;4.43;;;13.00;99.90;;;;;;5023004;28;20029;-64
2023/05/09 07:37:50;;;;;;;8.75;2.88;;;12.80;99.90;;;;;;5036035;28;20057;-60
2023/05/09 07:40:17;;;;;;;15.10;5.47;;;12.70;99.90;;;;;;5038261;28;20025;-61
2023/05/09 07:42:48;;;;;;;10.07;3.60;;;12.50;99.90;;;;;;5038533;28;20029;-62
2023/05/09 07:45:16;;;;;;;13.38;4.30;;;12.30;99.90;;;;;;5040424;28;20381;-61
2023/05/09 07:47:44;;;;;;;23.25;8.25;;;12.10;99.90;;;;;;5038348;28;20183;-61
2023/05/09 07:50:11;;;;;;;20.58;6.38;;;11.90;99.90;;;;;;5038125;28;20080;-61
2023/05/09 07:52:39;;;;;;;23.85;9.40;;;11.80;99.90;;;;;;5038746;28;20025;-61
2023/05/09 07:55:06;;;;;;;10.55;3.25;;;11.60;99.90;;;;;;5038685;28;20386;-60
2023/05/09 07:57:34;;;;;;;5.35;1.65;;;11.50;99.90;;;;;;5038682;28;20025;-61
2023/05/09 08:00:01;;;;;;;6.38;1.25;;;11.50;99.90;;;;;;5020549;28;20024;-61
2023/05/09 08:02:29;;;;;;;8.32;2.20;;;11.50;99.90;;;;;;5038658;28;20040;-61
2023/05/09 08:04:57;;;;;;;6.93;1.75;;;11.40;99.90;;;;;;5039462;28;20024;-61
2023/05/09 08:07:24;;;;;;;5.22;1.58;;;11.40;99.90;;;;;;5038636;28;20063;-61
2023/05/09 08:09:52;;;;;;;4.72;1.48;;;11.30;99.90;;;;;;5035452;28;20116;-60
2023/05/09 08:12:19;;;;;;;6.63;1.40;;;11.20;99.90;;;;;;5040574;28;20025;-60
2023/05/09 08:14:47;;;;;;;5.75;1.50;;;11.10;99.90;;;;;;5038660;28;20056;-60
2023/05/09 08:17:15;;;;;;;8.93;2.38;;;11.00;99.90;;;;;;5020945;28;20025;-61
2023/05/09 08:19:42;;;;;;;3.63;1.60;;;11.00;99.90;;;;;;5037785;28;20021;-60
2023/05/09 08:22:16;;;;;;;9.25;1.73;;;10.90;99.90;;;;;;5040353;28;20025;-60
2023/05/09 08:24:44;;;;;;;3.77;1.47;;;10.80;99.90;;;;;;5039792;28;20105;-61
2023/05/09 08:27:12;;;;;;;15.35;1.73;;;10.70;99.90;;;;;;5042186;28;20112;-60
2023/05/09 08:29:40;;;;;;;8.00;1.90;;;10.70;99.90;;;;;;5042693;28;20021;-60
2023/05/09 08:32:08;;;;;;;13.77;2.38;;;10.60;99.90;;;;;;5027379;28;20029;-61
2023/05/09 08:34:36;;;;;;;12.68;2.75;;;10.50;99.90;;;;;;5040684;28;20075;-60
2023/05/09 08:37:04;;;;;;;9.60;1.88;;;10.50;99.90;;;;;;5036986;28;20063;-58
2023/05/09 08:39:33;;;;;;;10.27;2.47;;;10.40;99.90;;;;;;5038219;28;20017;-59
2023/05/09 08:42:01;;;;;;;6.68;2.40;;;10.30;99.90;;;;;;5038594;28;20029;-61
2023/05/09 08:44:31;;;;;;;12.68;1.67;;;10.30;99.90;;;;;;5027340;28;20021;-61
2023/05/09 08:47:03;;;;;;;5.88;2.03;;;10.20;99.90;;;;;;5019982;28;20040;-61
2023/05/09 08:49:32;;;;;;;7.60;2.35;;;10.20;99.90;;;;;;5043227;28;20441;-60
2023/05/09 08:52:00;;;;;;;10.15;2.67;;;10.10;99.90;;;;;;5038471;28;20686;-60
2023/05/09 08:54:29;;;;;;;20.80;2.97;;;10.10;99.90;;;;;;5019956;28;20445;-60
2023/05/09 08:56:56;;;;;;;5.90;2.22;;;10.10;99.90;;;;;;5045233;28;20056;-62
2023/05/09 08:59:25;;;;;;;14.57;1.98;;;10.10;99.90;;;;;;5025687;28;20505;-61
2023/05/09 09:01:54;;;;;;;9.85;1.73;;;10.10;99.90;;;;;;5037530;28;20036;-62
2023/05/09 09:04:22;;;;;;;9.23;1.40;;;10.00;99.90;;;;;;5042285;28;20025;-62
2023/05/09 09:06:50;;;;;;;11.18;2.95;;;10.00;99.90;;;;;;5043723;28;20116;-61
2023/05/09 09:09:19;;;;;;;12.00;1.90;;;10.00;99.90;;;;;;5015439;28;20559;-60
2023/05/09 09:11:47;;;;;;;11.15;2.22;;;10.00;99.90;;;;;;5022515;28;20557;-60
2023/05/09 09:14:26;;;;;;;9.50;2.55;;;10.00;99.90;;;;;;5040040;28;20032;-60
2023/05/09 09:16:56;;;;;;;13.40;1.67;;;9.90;99.90;;;;;;5031141;28;20100;-60
2023/05/09 09:19:30;;;;;;;10.98;2.33;;;9.90;99.90;;;;;;5032595;28;20449;-60
2023/05/09 09:22:02;;;;;;;14.65;2.17;;;9.90;99.90;;;;;;5041496;28;20800;-60
2023/05/09 09:24:31;;;;;;;12.18;2.10;;;10.00;99.90;;;;;;5041177;28;20066;-60
2023/05/09 09:27:04;;;;;;;7.68;2.17;;;10.10;99.90;;;;;;5044781;28;20041;-58
2023/05/09 09:29:32;;;;;;;10.65;2.40;;;10.10;99.90;;;;;;5043068;28;20049;-60
2023/05/09 09:32:03;;;;;;;12.23;2.70;;;10.00;99.90;;;;;;5038722;28;20663;-61
2023/05/09 09:34:31;;;;;;;15.00;5.53;;;10.00;99.90;;;;;;5040613;28;20043;-60
2023/05/09 09:36:59;;;;;;;13.88;2.83;;;9.80;99.90;;;;;;5041816;28;20033;-60
2023/05/09 09:39:26;;;;;;;9.27;2.47;;;9.90;99.90;;;;;;5020990;28;20445;-61
2023/05/09 09:41:54;;;;;;;11.38;2.17;;;9.80;99.90;;;;;;5038832;28;20034;-54
2023/05/09 09:44:22;;;;;;;8.85;1.90;;;9.70;99.90;;;;;;5044824;28;20068;-60
2023/05/09 09:46:54;;;;;;;9.63;3.60;;;9.70;99.90;;;;;;5023909;28;20498;-60
2023/05/09 09:49:25;;;;;;;10.27;2.45;;;9.60;99.90;;;;;;5042393;28;20132;-61
2023/05/09 09:51:58;;;;;;;5.65;1.85;;;9.50;99.90;;;;;;5040315;28;20561;-60
2023/05/09 09:54:31;;;;;;;7.80;2.10;;;9.40;99.90;;;;;;5037378;28;20112;-60
2023/05/09 09:56:59;;;;;;;8.70;2.15;;;9.40;99.90;;;;;;5040918;28;20486;-61
2023/05/09 09:59:26;;;;;;;7.10;2.28;;;9.30;99.90;;;;;;5040329;28;20454;-61
2023/05/09 10:02:03;;;;;;;16.17;3.33;;;9.30;99.90;;;;;;5039569;28;20030;-60
2023/05/09 10:04:32;;;;;;;5.13;1.30;;;9.20;99.90;;;;;;5016835;28;20088;-60
2023/05/09 10:07:05;;;;;;;6.70;1.70;;;9.20;99.90;;;;;;5036371;28;20048;-62
2023/05/09 10:09:34;;;;;;;5.03;1.38;;;9.20;99.90;;;;;;5043366;28;20532;-60
2023/05/09 10:12:05;;;;;;;6.93;1.95;;;9.20;99.90;;;;;;5025650;28;20056;-61
2023/05/09 10:14:34;;;;;;;6.53;1.70;;;9.20;99.90;;;;;;5035055;28;20026;-60
2023/05/09 10:17:04;;;;;;;9.23;2.75;;;9.20;99.90;;;;;;5037834;28;20036;-60
2023/05/09 10:19:32;;;;;;;19.27;3.10;;;9.20;99.90;;;;;;5039128;28;20071;-60
2023/05/09 10:22:09;;;;;;;16.25;3.42;;;9.20;99.90;;;;;;5039873;28;20028;-60
2023/05/09 10:24:47;;;;;;;14.70;3.30;;;9.20;99.90;;;;;;5036179;28;20017;-61
2023/05/09 10:27:18;;;;;;;10.48;2.90;;;9.30;99.90;;;;;;5038834;28;20039;-61
2023/05/09 10:29:52;;;;;;;20.05;3.38;;;9.30;99.90;;;;;;5016903;28;20447;-60
2023/05/09 10:32:31;;;;;;;20.63;4.70;;;9.40;99.90;;;;;;5043411;28;20033;-61
2023/05/09 10:35:04;;;;;;;21.10;4.53;;;9.40;99.90;;;;;;5044200;28;20757;-60
2023/05/09 10:37:32;;;;;;;19.42;3.70;;;9.40;99.90;;;;;;5038203;28;20022;-61
2023/05/09 10:40:03;;;;;;;17.73;3.42;;;9.50;99.90;;;;;;5036339;28;20025;-61
2023/05/09 10:42:31;;;;;;;17.65;3.53;;;9.50;99.90;;;;;;5040418;28;20398;-61
2023/05/09 10:44:58;;;;;;;12.52;2.45;;;9.60;99.90;;;;;;5041060;28;20075;-60
2023/05/09 10:47:27;;;;;;;8.38;2.15;;;9.70;99.90;;;;;;5043906;28;20052;-60
2023/05/09 10:49:55;;;;;;;5.68;2.00;;;9.90;99.90;;;;;;5041261;28;20044;-60
2023/05/09 10:52:23;;;;;;;8.20;2.65;;;10.00;99.90;;;;;;5036224;28;20076;-60
2023/05/09 10:55:04;;;;;;;5.53;1.73;;;10.20;99.90;;;;;;5033804;28;20045;-60
2023/05/09 10:57:32;;;;;;;10.20;2.05;;;10.40;99.90;;;;;;5043638;28;20021;-60
2023/05/09 11:00:00;;;;;;;5.43;1.63;;;10.60;99.90;;;;;;5025562;28;20032;-60
2023/05/09 11:02:31;;;;;;;4.78;1.65;;;10.60;99.90;;;;;;5027176;28;20527;-60
2023/05/09 11:05:15;;;;;;;9.30;1.67;;;10.50;99.90;;;;;;5021603;28;20040;-60
2023/05/09 11:07:42;;;;;;;10.63;1.65;;;10.40;99.90;;;;;;5033877;28;20033;-60
2023/05/09 11:10:11;;;;;;;5.25;1.42;;;10.30;99.90;;;;;;5041501;28;20028;-60
2023/05/09 11:12:59;;;;;;;10.95;2.22;;;10.20;99.90;;;;;;5036889;28;20490;-60
2023/05/09 11:15:27;;;;;;;18.20;2.35;;;10.00;99.90;;;;;;5021057;28;20406;-61
2023/05/09 11:18:09;;;;;;;13.50;3.00;;;9.90;99.90;;;;;;5041046;28;20037;-61
2023/05/09 11:20:43;;;;;;;12.63;1.85;;;9.80;99.90;;;;;;5023306;28;20571;-60
2023/05/09 11:23:11;;;;;;;14.38;2.33;;;9.80;99.90;;;;;;5039629;28;20050;-60
2023/05/09 11:25:45;;;;;;;10.98;1.90;;;9.70;99.90;;;;;;5023678;28;20041;-62
2023/05/09 11:28:30;;;;;;;11.43;1.98;;;9.80;99.90;;;;;;5044385;28;20116;-62
2023/05/09 11:31:14;;;;;;;8.30;2.08;;;9.70;99.90;;;;;;5043374;28;20060;-60
2023/05/09 11:33:44;;;;;;;9.80;1.70;;;9.70;99.90;;;;;;5034388;28;20036;-60
2023/05/09 11:36:31;;;;;;;3.67;1.35;;;9.60;99.90;;;;;;5041822;28;20021;-60
2023/05/09 11:39:02;;;;;;;6.07;1.50;;;9.60;99.90;;;;;;5023627;28;20171;-60
2023/05/09 11:41:30;;;;;;;7.68;1.75;;;9.70;99.90;;;;;;5021286;28;20569;-61
2023/05/09 11:43:59;;;;;;;9.85;1.42;;;9.70;99.90;;;;;;5045493;28;20425;-61
2023/05/09 11:46:27;;;;;;;13.23;1.83;;;9.70;99.90;;;;;;5041517;28;20119;-61
2023/05/09 11:48:55;;;;;;;11.40;1.80;;;9.70;99.90;;;;;;5040521;28;20146;-61
2023/05/09 11:51:22;;;;;;;11.68;2.08;;;9.70;99.90;;;;;;5045301;28;20024;-60
2023/05/09 11:53:52;;;;;;;13.32;3.08;;;9.60;99.90;;;;;;5020310;28;20120;-61
2023/05/09 11:56:21;;;;;;;8.07;1.80;;;9.60;99.90;;;;;;5021998;28;20116;-61
2023/05/09 11:58:51;;;;;;;12.13;2.47;;;9.50;99.90;;;;;;5015973;28;20025;-61
2023/05/09 12:01:19;;;;;;;17.45;1.90;;;9.40;99.90;;;;;;5039161;28;20539;-60
2023/05/09 12:03:48;;;;;;;10.43;1.77;;;9.30;99.90;;;;;;5028355;28;20082;-60
2023/05/09 12:06:17;;;;;;;3.50;1.58;;;9.30;99.90;;;;;;5036787;28;20095;-61
2023/05/09 12:08:45;;;;;;;4.60;1.08;;;9.40;99.90;;;;;;5031971;28;20033;-61
2023/05/09 12:11:14;;;;;;;8.38;1.38;;;9.50;99.90;;;;;;5039555;28;20691;-61
2023/05/09 12:13:49;;;;;;;6.63;2.05;;;9.50;99.90;;;;;;5025345;28;20021;-60
2023/05/09 12:16:18;;;;;;;4.93;1.33;;;9.60;99.90;;;;;;5043634;28;20098;-61
2023/05/09 12:18:48;;;;;;;7.82;1.50;;;9.70;99.90;;;;;;5041226;28;20382;-61
2023/05/09 12:21:16;;;;;;;1.27;0.75;;;9.80;99.90;;;;;;5025307;28;20021;-60
2023/05/09 12:23:45;;;;;;;6.47;1.58;;;9.80;99.90;;;;;;5051844;28;20218;-61
2023/05/09 12:26:13;;;;;;;3.90;1.00;;;9.80;99.90;;;;;;5043490;28;20624;-62
2023/05/09 12:28:41;;;;;;;5.22;1.10;;;9.90;99.90;;;;;;5037193;28;20025;-61
2023/05/09 12:31:08;;;;;;;3.83;0.98;;;10.00;99.90;;;;;;5041076;28;20025;-60
2023/05/09 12:33:38;;;;;;;7.70;1.05;;;10.00;99.90;;;;;;5039431;28;20021;-60
2023/05/09 12:36:11;;;;;;;5.45;2.05;;;10.10;99.90;;;;;;5037223;28;20029;-61
2023/05/09 12:38:40;;;;;;;5.05;1.90;;;10.10;99.90;;;;;;5039769;28;20025;-60
2023/05/09 12:41:10;;;;;;;7.32;1.48;;;10.10;99.90;;;;;;5030776;28;20156;-61
2023/05/09 12:43:38;;;;;;;2.63;0.90;;;10.00;99.90;;;;;;5041956;28;20079;-61
2023/05/09 12:46:07;;;;;;;9.32;1.55;;;10.00;99.90;;;;;;5036216;28;20106;-61
2023/05/09 12:48:38;;;;;;;2.25;1.08;;;9.90;99.90;;;;;;5040385;28;20041;-61
2023/05/09 12:51:07;;;;;;;4.55;1.42;;;9.90;99.90;;;;;;5033762;28;20029;-61
2023/05/09 12:53:39;;;;;;;3.10;1.40;;;9.80;99.90;;;;;;5044112;28;20037;-60
2023/05/09 12:56:18;;;;;;;6.07;1.30;;;9.70;99.90;;;;;;5041844;28;20033;-61
2023/05/09 12:58:53;;;;;;;4.97;1.30;;;9.60;99.90;;;;;;5019130;28;20035;-62